createdAt,value
2023-03-16T00:00:53.868Z,100523.05
2023-03-16T00:03:30.931Z,100521.73
2023-03-16T00:06:04.704Z,100521.67
2023-03-16T00:08:39.456Z,100524.67
2023-03-16T00:11:13.832Z,100524.01
2023-03-16T00:13:47.456Z,100526.86
2023-03-16T00:16:22.123Z,100531.34
2023-03-16T00:18:55.799Z,100535.98
2023-03-16T00:21:30.896Z,100535.94
2023-03-16T00:24:04.636Z,100539.24
2023-03-16T00:26:38.575Z,100540.29
2023-03-16T00:29:12.359Z,100543.90
2023-03-16T00:31:46.187Z,100548.45
2023-03-16T00:34:20.065Z,100549.89
2023-03-16T00:36:55.780Z,100551.89
2023-03-16T00:39:29.566Z,100555.70
2023-03-16T00:42:03.488Z,100557.42
2023-03-16T00:44:36.979Z,100557.02
2023-03-16T00:47:14.845Z,100555.92
2023-03-16T00:49:48.658Z,100555.58
2023-03-16T00:52:23.648Z,100558.70
2023-03-16T00:54:57.899Z,100559.13
2023-03-16T00:57:32.334Z,100560.36
2023-03-16T01:00:13.241Z,100554.57
2023-03-16T01:02:46.923Z,100557.11
2023-03-16T01:05:20.982Z,100557.23
2023-03-16T01:07:54.775Z,100557.67
2023-03-16T01:10:29.778Z,100560.57
2023-03-16T01:13:03.761Z,100562.35
2023-03-16T01:15:37.776Z,100564.19
2023-03-16T01:18:13.955Z,100565.31
2023-03-16T01:20:51.272Z,100566.11
2023-03-16T01:23:25.365Z,100572.51
2023-03-16T01:25:59.357Z,100571.14
2023-03-16T01:28:34.618Z,100572.11
2023-03-16T01:31:10.825Z,100573.45
2023-03-16T01:33:45.767Z,100574.91
2023-03-16T01:36:22.849Z,100579.23
2023-03-16T01:38:59.291Z,100580.34
2023-03-16T01:41:36.708Z,100581.68
2023-03-16T01:44:12.545Z,100579.83
2023-03-16T01:46:46.412Z,100582.77
2023-03-16T01:49:24.362Z,100587.42
2023-03-16T01:52:04.395Z,100586.64
2023-03-16T01:54:42.693Z,100583.77
2023-03-16T01:57:20.384Z,100583.25
2023-03-16T01:59:58.179Z,100584.71
2023-03-16T02:02:34.177Z,100588.67
2023-03-16T02:05:13.855Z,100590.33
2023-03-16T02:07:51.298Z,100585.35
2023-03-16T02:10:25.092Z,100581.52
2023-03-16T02:13:00.008Z,100587.43
2023-03-16T02:15:36.419Z,100588.38
2023-03-16T02:18:11.541Z,100591.92
2023-03-16T02:20:52.116Z,100591.60
2023-03-16T02:23:27.704Z,100592.34
2023-03-16T02:26:09.225Z,100591.94
2023-03-16T02:28:51.763Z,100589.66
2023-03-16T02:31:25.469Z,100590.56
2023-03-16T02:34:01.995Z,100595.23
2023-03-16T02:36:36.976Z,100596.36
2023-03-16T02:39:11.063Z,100603.27
2023-03-16T02:41:52.622Z,100604.78
2023-03-16T02:44:29.642Z,100607.00
2023-03-16T02:47:07.477Z,100613.07
2023-03-16T02:49:44.041Z,100614.45
2023-03-16T02:52:17.788Z,100617.31
2023-03-16T02:54:51.656Z,100622.41
2023-03-16T02:57:25.316Z,100626.23
2023-03-16T02:59:59.619Z,100628.57
2023-03-16T03:02:33.146Z,100630.35
2023-03-16T03:05:06.973Z,100632.59
2023-03-16T03:07:40.626Z,100632.30
2023-03-16T03:10:14.989Z,100633.81
2023-03-16T03:12:50.236Z,100632.14
2023-03-16T03:15:24.193Z,100636.23
2023-03-16T03:18:06.837Z,100635.02
2023-03-16T03:20:40.255Z,100640.81
2023-03-16T03:23:15.676Z,100642.13
2023-03-16T03:25:49.510Z,100647.50
2023-03-16T03:28:23.389Z,100647.46
2023-03-16T03:30:57.885Z,100654.33
2023-03-16T03:33:34.021Z,100661.52
2023-03-16T03:36:09.792Z,100663.06
2023-03-16T03:38:44.654Z,100664.68
2023-03-16T03:41:19.408Z,100666.48
2023-03-16T03:43:53.144Z,100665.30
2023-03-16T03:46:27.559Z,100668.36
2023-03-16T03:49:04.480Z,100669.84
2023-03-16T03:51:39.687Z,100671.27
2023-03-16T03:54:17.499Z,100674.92
2023-03-16T03:56:59.576Z,100677.63
2023-03-16T03:59:35.305Z,100685.29
2023-03-16T04:02:28.364Z,100684.45
2023-03-16T04:05:02.686Z,100684.16
2023-03-16T04:07:36.653Z,100684.66
2023-03-16T04:10:14.833Z,100683.94
2023-03-16T04:12:49.801Z,100685.30
2023-03-16T04:15:24.073Z,100689.24
2023-03-16T04:18:10.375Z,100693.73
2023-03-16T04:20:44.148Z,100702.16
2023-03-16T04:23:20.864Z,100701.70
2023-03-16T04:25:56.056Z,100699.52
2023-03-16T04:28:29.783Z,100701.29
2023-03-16T04:31:07.631Z,100699.55
2023-03-16T04:33:46.141Z,100697.62
2023-03-16T04:36:20.102Z,100700.05
2023-03-16T04:38:55.319Z,100697.75
2023-03-16T04:41:30.018Z,100703.95
2023-03-16T04:44:14.054Z,100705.14
2023-03-16T04:46:48.088Z,100712.92
2023-03-16T04:49:21.905Z,100711.70
2023-03-16T04:51:55.646Z,100717.78
2023-03-16T04:54:29.204Z,100723.27
2023-03-16T04:57:03.966Z,100726.67
2023-03-16T04:59:48.931Z,100726.58
2023-03-16T05:02:29.526Z,100734.48
2023-03-16T05:05:06.963Z,100736.27
2023-03-16T05:07:42.002Z,100742.05
2023-03-16T05:10:17.281Z,100740.39
2023-03-16T05:12:51.194Z,100737.00
2023-03-16T05:15:25.117Z,100735.00
2023-03-16T05:18:34.852Z,100732.12
2023-03-16T05:21:08.934Z,100736.30
2023-03-16T05:23:58.746Z,100739.31
2023-03-16T05:26:33.187Z,100743.59
2023-03-16T05:29:07.502Z,100746.86
2023-03-16T05:31:41.528Z,100742.23
2023-03-16T05:34:19.746Z,100742.31
2023-03-16T05:36:53.350Z,100745.77
2023-03-16T05:39:28.945Z,100748.28
2023-03-16T05:42:02.821Z,100749.69
2023-03-16T05:44:56.190Z,100744.70
2023-03-16T05:47:52.208Z,100739.83
2023-03-16T05:50:26.862Z,100734.20
2023-03-16T05:53:00.746Z,100736.33
2023-03-16T05:55:34.773Z,100736.73
2023-03-16T05:58:09.275Z,100734.83
2023-03-16T06:00:43.449Z,100736.67
2023-03-16T06:03:27.854Z,100740.60
2023-03-16T06:06:02.479Z,100739.33
2023-03-16T06:08:45.115Z,100742.84
2023-03-16T06:11:18.644Z,100742.48
2023-03-16T06:13:52.401Z,100747.05
2023-03-16T06:16:26.495Z,100745.03
2023-03-16T06:19:00.332Z,100744.47
2023-03-16T06:21:35.523Z,100744.38
2023-03-16T06:24:16.386Z,100746.65
2023-03-16T06:26:50.305Z,100745.79
2023-03-16T06:29:24.590Z,100748.13
2023-03-16T06:31:58.301Z,100751.52
2023-03-16T06:34:32.463Z,100748.71
2023-03-16T06:37:06.622Z,100746.02
2023-03-16T06:39:40.373Z,100740.08
2023-03-16T06:42:14.010Z,100740.54
2023-03-16T06:44:47.915Z,100737.23
2023-03-16T06:47:22.294Z,100735.84
2023-03-16T06:49:55.977Z,100734.98
2023-03-16T06:52:31.989Z,100740.39
2023-03-16T06:55:05.872Z,100742.94
2023-03-16T06:57:40.818Z,100748.80
2023-03-16T07:00:17.617Z,100747.45
2023-03-16T07:02:51.649Z,100745.74
2023-03-16T07:05:26.382Z,100754.83
2023-03-16T07:08:00.148Z,100759.48
2023-03-16T07:10:34.747Z,100762.59
2023-03-16T07:13:08.512Z,100767.14
2023-03-16T07:15:42.283Z,100770.91
2023-03-16T07:18:16.368Z,100772.16
2023-03-16T07:20:50.692Z,100778.73
2023-03-16T07:23:24.745Z,100779.52
2023-03-16T07:26:00.043Z,100775.52
2023-03-16T07:28:34.316Z,100775.02
2023-03-16T07:31:09.808Z,100774.59
2023-03-16T07:33:46.425Z,100777.11
2023-03-16T07:36:24.280Z,100779.44
2023-03-16T07:39:01.883Z,100779.84
2023-03-16T07:41:35.769Z,100781.64
2023-03-16T07:44:23.850Z,100783.77
2023-03-16T07:46:59.522Z,100786.00
2023-03-16T07:49:34.815Z,100786.27
2023-03-16T07:52:09.558Z,100791.14
2023-03-16T07:54:45.659Z,100798.59
2023-03-16T07:57:20.672Z,100795.98
2023-03-16T07:59:54.467Z,100796.78
2023-03-16T08:02:28.789Z,100801.00
2023-03-16T08:05:04.454Z,100800.83
2023-03-16T08:07:38.475Z,100804.06
2023-03-16T08:10:19.125Z,100800.29
2023-03-16T08:13:01.238Z,100792.63
2023-03-16T08:15:36.162Z,100789.02
2023-03-16T08:18:18.088Z,100789.65
2023-03-16T08:20:52.841Z,100792.59
2023-03-16T08:23:26.714Z,100791.63
2023-03-16T08:26:01.448Z,100795.12
2023-03-16T08:28:35.235Z,100795.99
2023-03-16T08:31:14.931Z,100798.25
2023-03-16T08:33:58.566Z,100796.69
2023-03-16T08:36:34.009Z,100798.75
2023-03-16T08:39:07.950Z,100803.11
2023-03-16T08:41:48.483Z,100814.02
2023-03-16T08:44:30.969Z,100814.48
2023-03-16T08:47:05.525Z,100813.42
2023-03-16T08:49:40.148Z,100817.64
2023-03-16T08:52:19.054Z,100815.97
2023-03-16T08:55:03.096Z,100816.19
2023-03-16T08:57:39.612Z,100822.25
2023-03-16T09:00:15.908Z,100826.33
2023-03-16T09:02:50.210Z,100825.75
2023-03-16T09:05:26.076Z,100831.59
2023-03-16T09:08:00.419Z,100838.73
2023-03-16T09:10:34.393Z,100836.53
2023-03-16T09:13:08.955Z,100839.23
2023-03-16T09:15:43.349Z,100837.85
2023-03-16T09:18:18.834Z,100838.32
2023-03-16T09:20:52.304Z,100837.59
2023-03-16T09:23:26.563Z,100834.97
2023-03-16T09:26:03.481Z,100828.30
2023-03-16T09:28:41.039Z,100824.62
2023-03-16T09:31:20.231Z,100820.48
2023-03-16T09:33:54.747Z,100822.55
2023-03-16T09:36:28.778Z,100827.26
2023-03-16T09:39:02.943Z,100831.73
2023-03-16T09:41:47.970Z,100835.24
2023-03-16T09:44:35.970Z,100835.61
2023-03-16T09:47:13.273Z,100841.03
2023-03-16T09:49:49.436Z,100844.29
2023-03-16T09:52:33.779Z,100845.36
2023-03-16T09:55:15.157Z,100840.80
2023-03-16T09:57:52.767Z,100837.52
2023-03-16T10:00:33.077Z,100841.79
2023-03-16T10:03:25.456Z,100842.20
2023-03-16T10:06:04.149Z,100836.41
2023-03-16T10:08:42.396Z,100836.00
2023-03-16T10:11:36.921Z,100838.25
2023-03-16T10:14:20.565Z,100839.05
2023-03-16T10:16:59.045Z,100834.00
2023-03-16T10:19:37.137Z,100839.38
2023-03-16T10:22:22.177Z,100843.73
2023-03-16T10:25:05.760Z,100850.80
2023-03-16T10:27:41.099Z,100855.27
2023-03-16T10:30:25.205Z,100860.73
2023-03-16T10:33:03.925Z,100860.02
2023-03-16T10:35:43.329Z,100861.95
2023-03-16T10:38:33.976Z,100859.75
2023-03-16T10:41:16.689Z,100863.16
2023-03-16T10:43:53.561Z,100861.64
2023-03-16T10:46:29.141Z,100859.25
2023-03-16T10:49:03.756Z,100852.44
2023-03-16T10:51:39.850Z,100849.92
2023-03-16T10:54:23.892Z,100846.05
2023-03-16T10:56:57.923Z,100842.36
2023-03-16T10:59:35.391Z,100842.70
2023-03-16T11:02:21.011Z,100844.42
2023-03-16T11:04:57.726Z,100839.77
2023-03-16T11:07:31.794Z,100833.83
2023-03-16T11:10:26.986Z,100833.91
2023-03-16T11:13:09.119Z,100832.24
2023-03-16T11:15:46.577Z,100829.69
2023-03-16T11:18:30.429Z,100827.40
2023-03-16T11:21:10.030Z,100829.42
2023-03-16T11:23:50.489Z,100827.32
2023-03-16T11:26:29.520Z,100830.11
2023-03-16T11:29:10.172Z,100833.86
2023-03-16T11:31:49.803Z,100839.93
2023-03-16T11:34:28.600Z,100841.19
2023-03-16T11:37:15.346Z,100852.69
2023-03-16T11:39:58.851Z,100851.39
2023-03-16T11:42:39.889Z,100854.27
2023-03-16T11:45:27.721Z,100855.41
2023-03-16T11:48:21.710Z,100858.56
2023-03-16T11:51:06.633Z,100861.43
2023-03-16T11:54:02.977Z,100861.17
2023-03-16T11:56:41.900Z,100866.04
2023-03-16T11:59:48.979Z,100861.96
2023-03-16T12:02:41.096Z,100862.41
2023-03-16T12:05:33.871Z,100867.43
2023-03-16T12:08:24.916Z,100869.02
2023-03-16T12:11:04.697Z,100867.19
2023-03-16T12:13:52.905Z,100865.13
2023-03-16T12:16:48.325Z,100867.56
2023-03-16T12:19:31.032Z,100867.45
2023-03-16T12:22:15.598Z,100869.14
2023-03-16T12:24:50.746Z,100872.23
2023-03-16T12:27:28.301Z,100873.03
2023-03-16T12:30:15.907Z,100873.13
2023-03-16T12:33:00.894Z,100874.10
2023-03-16T12:35:44.886Z,100874.27
2023-03-16T12:38:38.230Z,100875.83
2023-03-16T12:41:32.463Z,100875.02
2023-03-16T12:44:21.318Z,100872.94
2023-03-16T12:47:02.764Z,100876.51
2023-03-16T12:49:38.805Z,100879.27
2023-03-16T12:52:15.340Z,100881.84
2023-03-16T12:55:07.578Z,100887.83
2023-03-16T12:57:43.741Z,100883.58
2023-03-16T13:00:20.064Z,100883.37
2023-03-16T13:03:00.094Z,100885.56
2023-03-16T13:05:36.676Z,100884.82
2023-03-16T13:08:13.985Z,100884.41
2023-03-16T13:11:04.721Z,100877.92
2023-03-16T13:13:50.058Z,100876.25
2023-03-16T13:16:32.505Z,100876.10
2023-03-16T13:19:26.582Z,100874.74
2023-03-16T13:22:21.434Z,100872.02
2023-03-16T13:24:57.850Z,100877.33
2023-03-16T13:27:35.624Z,100875.75
2023-03-16T13:30:22.756Z,100876.86
2023-03-16T13:33:03.042Z,100878.83
2023-03-16T13:35:41.400Z,100883.23
2023-03-16T13:38:20.324Z,100885.83
2023-03-16T13:40:56.952Z,100891.33
2023-03-16T13:43:36.103Z,100892.25
2023-03-16T13:46:20.079Z,100892.21
2023-03-16T13:48:53.970Z,100892.20
2023-03-16T13:51:27.995Z,100889.94
2023-03-16T13:54:06.659Z,100891.79
2023-03-16T13:56:40.580Z,100891.63
2023-03-16T13:59:14.696Z,100888.77
2023-03-16T14:01:50.208Z,100894.52
2023-03-16T14:04:25.789Z,100893.88
2023-03-16T14:07:01.187Z,100894.84
2023-03-16T14:09:37.304Z,100893.80
2023-03-16T14:12:18.307Z,100896.02
2023-03-16T14:14:56.769Z,100899.32
2023-03-16T14:17:32.293Z,100900.52
2023-03-16T14:20:08.538Z,100900.21
2023-03-16T14:22:42.346Z,100900.19
2023-03-16T14:25:22.894Z,100901.18
2023-03-16T14:28:04.122Z,100902.96
2023-03-16T14:30:38.666Z,100904.64
2023-03-16T14:33:30.143Z,100905.64
2023-03-16T14:36:13.373Z,100904.75
2023-03-16T14:38:48.641Z,100904.21
2023-03-16T14:41:29.336Z,100904.29
2023-03-16T14:44:04.692Z,100905.70
2023-03-16T14:46:42.741Z,100905.05
2023-03-16T14:49:25.629Z,100910.40
2023-03-16T14:52:03.831Z,100909.65
2023-03-16T14:54:37.750Z,100910.20
2023-03-16T14:57:19.933Z,100907.15
2023-03-16T14:59:54.538Z,100909.46
2023-03-16T15:02:32.211Z,100913.14
2023-03-16T15:05:07.647Z,100919.34
2023-03-16T15:07:43.587Z,100922.41
2023-03-16T15:10:27.084Z,100921.90
2023-03-16T15:13:13.641Z,100923.33
2023-03-16T15:15:49.082Z,100919.37
2023-03-16T15:18:22.853Z,100921.70
2023-03-16T15:20:56.970Z,100922.69
2023-03-16T15:23:31.203Z,100926.84
2023-03-16T15:26:07.820Z,100924.56
2023-03-16T15:28:41.751Z,100927.03
2023-03-16T15:31:16.472Z,100924.92
2023-03-16T15:33:50.345Z,100923.02
2023-03-16T15:36:25.469Z,100923.27
2023-03-16T15:38:58.924Z,100922.25
2023-03-16T15:41:46.810Z,100928.13
2023-03-16T15:44:21.515Z,100927.58
2023-03-16T15:46:56.167Z,100928.16
2023-03-16T15:49:32.456Z,100932.09
2023-03-16T15:52:29.033Z,100935.74
2023-03-16T15:55:08.271Z,100938.70
2023-03-16T15:57:42.048Z,100941.59
2023-03-16T16:00:35.928Z,100944.41
2023-03-16T16:03:13.434Z,100947.11
2023-03-16T16:05:47.824Z,100949.48
2023-03-16T16:08:21.764Z,100953.28
2023-03-16T16:10:57.697Z,100956.47
2023-03-16T16:13:43.537Z,100957.46
2023-03-16T16:16:20.736Z,100962.41
2023-03-16T16:18:54.709Z,100964.02
2023-03-16T16:21:31.863Z,100963.41
2023-03-16T16:24:06.052Z,100962.56
2023-03-16T16:26:54.198Z,100965.91
2023-03-16T16:29:34.244Z,100973.19
2023-03-16T16:32:22.654Z,100978.67
2023-03-16T16:35:03.862Z,100979.32
2023-03-16T16:37:39.367Z,100983.02
2023-03-16T16:40:23.570Z,100985.11
2023-03-16T16:42:58.297Z,100987.12
2023-03-16T16:45:33.592Z,100988.00
2023-03-16T16:48:25.169Z,100993.18
2023-03-16T16:50:59.884Z,100999.05
2023-03-16T16:53:34.718Z,101000.40
2023-03-16T16:56:14.175Z,101003.56
2023-03-16T16:58:49.127Z,101004.66
2023-03-16T17:01:28.785Z,101008.33
2023-03-16T17:04:04.054Z,101013.77
2023-03-16T17:06:38.216Z,101014.34
2023-03-16T17:09:14.723Z,101014.55
2023-03-16T17:11:50.521Z,101014.77
2023-03-16T17:14:28.787Z,101018.85
2023-03-16T17:17:09.004Z,101022.08
2023-03-16T17:19:47.322Z,101022.16
2023-03-16T17:22:26.661Z,101017.07
2023-03-16T17:25:01.364Z,101021.58
2023-03-16T17:27:35.865Z,101026.84
2023-03-16T17:30:24.740Z,101035.63
2023-03-16T17:33:04.836Z,101040.20
2023-03-16T17:35:41.813Z,101038.77
2023-03-16T17:38:23.063Z,101036.16
2023-03-16T17:40:59.675Z,101035.94
2023-03-16T17:43:38.075Z,101039.27
2023-03-16T17:46:17.174Z,101048.41
2023-03-16T17:48:57.634Z,101046.79
2023-03-16T17:51:40.358Z,101049.52
2023-03-16T17:54:22.226Z,101052.98
2023-03-16T17:56:58.220Z,101054.90
2023-03-16T17:59:39.455Z,101057.16
2023-03-16T18:02:41.231Z,101059.64
2023-03-16T18:05:26.427Z,101062.06
2023-03-16T18:08:10.517Z,101059.75
2023-03-16T18:10:55.702Z,101060.99
2023-03-16T18:13:35.801Z,101061.70
2023-03-16T18:16:17.005Z,101063.14
2023-03-16T18:19:01.593Z,101060.95
2023-03-16T18:21:38.548Z,101070.43
2023-03-16T18:24:22.491Z,101075.23
2023-03-16T18:26:59.746Z,101079.23
2023-03-16T18:29:43.209Z,101080.81
2023-03-16T18:32:26.398Z,101082.38
2023-03-16T18:35:04.725Z,101084.30
2023-03-16T18:37:44.615Z,101086.38
2023-03-16T18:40:26.392Z,101087.02
2023-03-16T18:43:02.716Z,101085.35
2023-03-16T18:45:40.520Z,101084.48
2023-03-16T18:48:26.115Z,101086.98
2023-03-16T18:51:05.602Z,101094.27
2023-03-16T18:53:42.414Z,101095.00
2023-03-16T18:56:28.952Z,101098.91
2023-03-16T18:59:07.120Z,101099.39
2023-03-16T19:01:47.102Z,101097.39
2023-03-16T19:04:34.505Z,101098.83
2023-03-16T19:07:27.698Z,101099.42
2023-03-16T19:10:06.792Z,101096.72
2023-03-16T19:12:46.620Z,101096.01
2023-03-16T19:15:30.030Z,101096.24
2023-03-16T19:18:14.097Z,101099.10
2023-03-16T19:20:54.945Z,101105.05
2023-03-16T19:23:37.244Z,101110.34
2023-03-16T19:26:15.886Z,101115.27
2023-03-16T19:28:54.038Z,101118.34
2023-03-16T19:31:37.806Z,101119.80
2023-03-16T19:34:26.681Z,101123.11
2023-03-16T19:37:07.806Z,101124.56
2023-03-16T19:39:45.124Z,101130.94
2023-03-16T19:42:36.120Z,101132.97
2023-03-16T19:45:21.029Z,101135.09
2023-03-16T19:47:58.592Z,101136.44
2023-03-16T19:50:35.800Z,101133.86
2023-03-16T19:53:25.634Z,101134.50
2023-03-16T19:56:04.966Z,101135.86
2023-03-16T19:58:42.678Z,101138.48
2023-03-16T20:01:33.807Z,101138.16
2023-03-16T20:04:20.521Z,101136.17
2023-03-16T20:06:57.473Z,101137.45
2023-03-16T20:09:39.809Z,101138.64
2023-03-16T20:12:38.694Z,101139.02
2023-03-16T20:15:18.864Z,101137.75
2023-03-16T20:17:55.290Z,101140.46
2023-03-16T20:20:34.685Z,101139.98
2023-03-16T20:23:22.003Z,101140.24
2023-03-16T20:26:05.720Z,101144.67
2023-03-16T20:28:43.483Z,101146.63
2023-03-16T20:31:27.478Z,101142.83
2023-03-16T20:34:03.063Z,101143.44
2023-03-16T20:36:39.104Z,101142.08
2023-03-16T20:39:17.846Z,101141.69
2023-03-16T20:41:55.838Z,101144.57
2023-03-16T20:44:33.912Z,101144.90
2023-03-16T20:47:19.538Z,101143.50
2023-03-16T20:50:00.061Z,101144.55
2023-03-16T20:52:38.359Z,101148.66
2023-03-16T20:55:20.636Z,101149.41
2023-03-16T20:57:58.483Z,101146.48
2023-03-16T21:00:40.010Z,101147.60
2023-03-16T21:03:24.994Z,101150.67
2023-03-16T21:06:02.010Z,101148.65
2023-03-16T21:08:36.923Z,101149.98
2023-03-16T21:11:26.769Z,101150.42
2023-03-16T21:14:05.189Z,101149.33
2023-03-16T21:16:40.762Z,101154.72
2023-03-16T21:19:20.233Z,101155.94
2023-03-16T21:21:56.328Z,101154.41
2023-03-16T21:24:31.603Z,101154.70
2023-03-16T21:27:05.277Z,101152.86
2023-03-16T21:29:39.242Z,101155.67
2023-03-16T21:32:23.416Z,101156.83
2023-03-16T21:34:59.417Z,101161.84
2023-03-16T21:37:33.566Z,101160.48
2023-03-16T21:40:16.956Z,101159.47
2023-03-16T21:42:52.062Z,101161.92
2023-03-16T21:45:26.057Z,101163.25
2023-03-16T21:48:00.149Z,101166.46
2023-03-16T21:50:36.077Z,101167.52
2023-03-16T21:53:17.840Z,101170.36
2023-03-16T21:55:52.328Z,101168.92
2023-03-16T21:58:27.571Z,101167.16
2023-03-16T22:01:01.819Z,101169.30
2023-03-16T22:03:50.419Z,101169.08
2023-03-16T22:06:28.145Z,101168.64
2023-03-16T22:09:03.158Z,101163.45
2023-03-16T22:11:36.611Z,101162.59
2023-03-16T22:14:10.392Z,101166.76
2023-03-16T22:16:45.033Z,101172.16
2023-03-16T22:19:19.272Z,101176.00
2023-03-16T22:21:53.020Z,101175.14
2023-03-16T22:24:28.846Z,101174.70
2023-03-16T22:27:02.787Z,101175.41
2023-03-16T22:29:36.928Z,101174.05
2023-03-16T22:32:17.300Z,101173.66
2023-03-16T22:34:53.018Z,101172.45
2023-03-16T22:37:28.961Z,101172.62
2023-03-16T22:40:03.175Z,101174.05
2023-03-16T22:42:38.554Z,101178.50
2023-03-16T22:45:23.092Z,101176.65
2023-03-16T22:47:58.549Z,101177.15
2023-03-16T22:50:35.912Z,101174.99
2023-03-16T22:53:13.370Z,101176.38
2023-03-16T22:55:47.088Z,101178.70
2023-03-16T22:58:31.626Z,101182.30
2023-03-16T23:01:17.192Z,101187.40
2023-03-16T23:03:53.256Z,101190.42
2023-03-16T23:06:28.246Z,101187.31
2023-03-16T23:09:02.634Z,101187.31
2023-03-16T23:11:37.631Z,101188.98
2023-03-16T23:14:16.310Z,101191.00
2023-03-16T23:16:50.661Z,101192.69
2023-03-16T23:19:30.160Z,101194.43
2023-03-16T23:22:06.408Z,101197.98
2023-03-16T23:24:39.986Z,101195.54
2023-03-16T23:27:21.635Z,101198.58
2023-03-16T23:29:55.253Z,101207.13
2023-03-16T23:32:29.445Z,101208.75
2023-03-16T23:35:03.081Z,101209.45
2023-03-16T23:37:36.932Z,101210.48
2023-03-16T23:40:12.403Z,101211.59
2023-03-16T23:42:47.233Z,101212.95
2023-03-16T23:45:31.510Z,101216.81
2023-03-16T23:48:09.015Z,101222.41
2023-03-16T23:50:44.996Z,101225.02
2023-03-16T23:53:20.797Z,101223.82
2023-03-16T23:55:54.490Z,101219.48
2023-03-16T23:58:28.030Z,101221.16
